sensor_id;sensor_type;location;lat;lon;timestamp;pressure;altitude;pressure_sealevel;temperature;humidity
11198;BME280;5655;48.744;9.162;2023-05-20T00:01:32;96262.69;;;14.07;100.00
11198;BME280;5655;48.744;9.162;2023-05-20T00:03:57;96259.63;;;14.13;100.00
11198;BME280;5655;48.744;9.162;2023-05-20T00:06:22;96255.41;;;14.04;100.00
11198;BME280;5655;48.744;9.162;2023-05-20T00:08:48;96257.31;;;14.11;100.00
11198;BME280;5655;48.744;9.162;2023-05-20T00:11:13;96251.53;;;14.23;100.00
11198;BME280;5655;48.744;9.162;2023-05-20T00:13:38;96249.25;;;14.00;100.00
11198;BME280;5655;48.744;9.162;2023-05-20T00:16:04;96253.81;;;14.39;100.00
11198;BME280;5655;48.744;9.162;2023-05-20T00:18:30;96253.41;;;14.37;100.00
11198;BME280;5655;48.744;9.162;2023-05-20T00:20:57;96250.00;;;14.19;100.00
11198;BME280;5655;48.744;9.162;2023-05-20T00:23:22;96251.94;;;14.04;100.00
11198;BME280;5655;48.744;9.162;2023-05-20T00:25:48;96247.69;;;14.17;100.00
11198;BME280;5655;48.744;9.162;2023-05-20T00:28:13;96244.97;;;14.24;100.00
11198;BME280;5655;48.744;9.162;2023-05-20T00:30:39;96246.13;;;14.30;100.00
11198;BME280;5655;48.744;9.162;2023-05-20T00:33:07;96243.06;;;14.25;100.00
11198;BME280;5655;48.744;9.162;2023-05-20T00:35:33;96248.47;;;14.03;100.00
11198;BME280;5655;48.744;9.162;2023-05-20T00:37:58;96244.63;;;14.12;100.00
11198;BME280;5655;48.744;9.162;2023-05-20T00:40:23;96243.84;;;14.07;100.00
11198;BME280;5655;48.744;9.162;2023-05-20T00:42:49;96250.00;;;14.19;100.00
11198;BME280;5655;48.744;9.162;2023-05-20T00:45:14;96246.16;;;14.13;100.00
11198;BME280;5655;48.744;9.162;2023-05-20T00:47:41;96246.88;;;14.45;100.00
11198;BME280;5655;48.744;9.162;2023-05-20T00:50:07;96244.59;;;14.22;100.00
11198;BME280;5655;48.744;9.162;2023-05-20T00:52:34;96247.28;;;14.26;100.00
11198;BME280;5655;48.744;9.162;2023-05-20T00:55:00;96238.88;;;14.09;100.00
11198;BME280;5655;48.744;9.162;2023-05-20T00:57:26;96235.41;;;14.09;100.00
11198;BME280;5655;48.744;9.162;2023-05-20T00:59:51;96237.34;;;13.94;100.00
11198;BME280;5655;48.744;9.162;2023-05-20T01:02:17;96233.47;;;14.02;100.00
11198;BME280;5655;48.744;9.162;2023-05-20T01:04:43;96231.56;;;14.14;100.00
11198;BME280;5655;48.744;9.162;2023-05-20T01:07:12;96231.16;;;14.12;100.00
11198;BME280;5655;48.744;9.162;2023-05-20T01:09:39;96226.94;;;14.03;100.00
11198;BME280;5655;48.744;9.162;2023-05-20T01:12:21;96221.56;;;14.11;100.00
11198;BME280;5655;48.744;9.162;2023-05-20T01:14:49;96226.53;;;14.16;100.00
11198;BME280;5655;48.744;9.162;2023-05-20T01:17:15;96224.63;;;14.13;100.00
11198;BME280;5655;48.744;9.162;2023-05-20T01:19:45;96226.19;;;13.99;100.00
11198;BME280;5655;48.744;9.162;2023-05-20T01:22:13;96225.78;;;14.19;100.00
11198;BME280;5655;48.744;9.162;2023-05-20T01:24:43;96221.56;;;14.14;100.00
11198;BME280;5655;48.744;9.162;2023-05-20T01:27:10;96213.88;;;13.98;100.00
11198;BME280;5655;48.744;9.162;2023-05-20T01:29:36;96214.66;;;14.06;100.00
11198;BME280;5655;48.744;9.162;2023-05-20T01:32:05;96212.75;;;13.99;100.00
11198;BME280;5655;48.744;9.162;2023-05-20T01:34:33;96208.44;;;14.20;100.00
11198;BME280;5655;48.744;9.162;2023-05-20T01:37:00;96209.66;;;14.04;100.00
11198;BME280;5655;48.744;9.162;2023-05-20T01:39:26;96197.78;;;13.84;100.00
11198;BME280;5655;48.744;9.162;2023-05-20T01:41:51;96199.31;;;13.89;100.00
11198;BME280;5655;48.744;9.162;2023-05-20T01:44:17;96203.50;;;14.00;100.00
11198;BME280;5655;48.744;9.162;2023-05-20T01:46:48;96200.03;;;14.14;100.00
11198;BME280;5655;48.744;9.162;2023-05-20T01:49:13;96196.22;;;13.90;100.00
11198;BME280;5655;48.744;9.162;2023-05-20T01:51:38;96196.63;;;13.92;100.00
11198;BME280;5655;48.744;9.162;2023-05-20T01:54:03;96200.09;;;13.93;100.00
11198;BME280;5655;48.744;9.162;2023-05-20T01:56:29;96202.34;;;13.98;100.00
11198;BME280;5655;48.744;9.162;2023-05-20T01:58:55;96203.94;;;13.88;100.00
11198;BME280;5655;48.744;9.162;2023-05-20T02:01:20;96197.78;;;13.77;100.00
11198;BME280;5655;48.744;9.162;2023-05-20T02:03:45;96197.00;;;13.87;100.00
11198;BME280;5655;48.744;9.162;2023-05-20T02:06:10;96196.63;;;13.92;100.00
11198;BME280;5655;48.744;9.162;2023-05-20T02:08:36;96187.41;;;13.83;100.00
11198;BME280;5655;48.744;9.162;2023-05-20T02:11:02;96180.88;;;13.77;100.00
11198;BME280;5655;48.744;9.162;2023-05-20T02:13:27;96188.56;;;13.75;100.00
11198;BME280;5655;48.744;9.162;2023-05-20T02:15:52;96180.13;;;13.76;100.00
11198;BME280;5655;48.744;9.162;2023-05-20T02:18:17;96180.94;;;13.59;100.00
11198;BME280;5655;48.744;9.162;2023-05-20T02:20:43;96183.19;;;13.78;100.00
11198;BME280;5655;48.744;9.162;2023-05-20T02:23:08;96184.38;;;13.56;100.00
11198;BME280;5655;48.744;9.162;2023-05-20T02:25:33;96185.91;;;13.68;100.00
11198;BME280;5655;48.744;9.162;2023-05-20T02:27:59;96186.66;;;13.68;100.00
11198;BME280;5655;48.744;9.162;2023-05-20T02:30:26;96180.50;;;13.75;100.00
11198;BME280;5655;48.744;9.162;2023-05-20T02:32:51;96180.94;;;13.59;100.00
11198;BME280;5655;48.744;9.162;2023-05-20T02:35:16;96177.06;;;13.42;100.00
11198;BME280;5655;48.744;9.162;2023-05-20T02:37:42;96175.56;;;13.45;100.00
11198;BME280;5655;48.744;9.162;2023-05-20T02:40:09;96180.94;;;13.41;100.00
11198;BME280;5655;48.744;9.162;2023-05-20T02:42:34;96180.53;;;13.43;100.00
11198;BME280;5655;48.744;9.162;2023-05-20T02:45:00;96173.25;;;13.26;100.00
11198;BME280;5655;48.744;9.162;2023-05-20T02:47:26;96170.16;;;13.34;100.00
11198;BME280;5655;48.744;9.162;2023-05-20T02:49:51;96170.56;;;13.26;100.00
11198;BME280;5655;48.744;9.162;2023-05-20T02:52:17;96174.78;;;13.48;100.00
11198;BME280;5655;48.744;9.162;2023-05-20T02:54:42;96172.47;;;13.36;100.00
11198;BME280;5655;48.744;9.162;2023-05-20T02:57:07;96180.53;;;13.43;100.00
11198;BME280;5655;48.744;9.162;2023-05-20T02:59:32;96174.38;;;13.42;100.00
11198;BME280;5655;48.744;9.162;2023-05-20T03:01:58;96166.72;;;13.30;100.00
11198;BME280;5655;48.744;9.162;2023-05-20T03:04:23;96170.94;;;13.17;100.00
11198;BME280;5655;48.744;9.162;2023-05-20T03:06:50;96173.63;;;13.28;100.00
11198;BME280;5655;48.744;9.162;2023-05-20T03:09:16;96179.75;;;13.21;100.00
11198;BME280;5655;48.744;9.162;2023-05-20T03:11:42;96180.91;;;13.38;100.00
11198;BME280;5655;48.744;9.162;2023-05-20T03:14:08;96173.63;;;13.21;100.00
11198;BME280;5655;48.744;9.162;2023-05-20T03:16:33;96162.50;;;13.11;100.00
11198;BME280;5655;48.744;9.162;2023-05-20T03:19:00;96160.19;;;13.13;100.00
11198;BME280;5655;48.744;9.162;2023-05-20T03:21:25;96162.09;;;13.16;100.00
11198;BME280;5655;48.744;9.162;2023-05-20T03:23:50;96166.34;;;13.10;100.00
11198;BME280;5655;48.744;9.162;2023-05-20T03:26:16;96164.38;;;12.97;100.00
11198;BME280;5655;48.744;9.162;2023-05-20T03:28:41;96155.53;;;13.00;100.00
11198;BME280;5655;48.744;9.162;2023-05-20T03:31:07;96149.81;;;12.94;100.00
11198;BME280;5655;48.744;9.162;2023-05-20T03:33:33;96147.88;;;13.05;100.00
11198;BME280;5655;48.744;9.162;2023-05-20T03:35:59;96155.16;;;12.91;100.00
11198;BME280;5655;48.744;9.162;2023-05-20T03:38:26;96157.47;;;12.99;100.00
11198;BME280;5655;48.744;9.162;2023-05-20T03:40:51;96166.34;;;13.10;100.00
11198;BME280;5655;48.744;9.162;2023-05-20T03:43:16;96158.59;;;12.84;100.00
11198;BME280;5655;48.744;9.162;2023-05-20T03:45:42;96161.66;;;12.86;100.00
11198;BME280;5655;48.744;9.162;2023-05-20T03:48:07;96156.66;;;12.78;100.00
11198;BME280;5655;48.744;9.162;2023-05-20T03:50:32;96162.09;;;13.02;100.00
11198;BME280;5655;48.744;9.162;2023-05-20T03:52:58;96165.13;;;12.87;100.00
11198;BME280;5655;48.744;9.162;2023-05-20T03:55:23;96160.53;;;12.84;100.00
11198;BME280;5655;48.744;9.162;2023-05-20T03:57:49;96163.19;;;12.84;100.00
11198;BME280;5655;48.744;9.162;2023-05-20T04:00:14;96164.00;;;12.98;100.00
11198;BME280;5655;48.744;9.162;2023-05-20T04:02:40;96158.22;;;12.96;100.00
11198;BME280;5655;48.744;9.162;2023-05-20T04:05:16;96154.00;;;12.99;100.00
11198;BME280;5655;48.744;9.162;2023-05-20T04:07:46;96164.03;;;13.20;100.00
11198;BME280;5655;48.744;9.162;2023-05-20T04:10:12;96160.97;;;13.10;100.00
11198;BME280;5655;48.744;9.162;2023-05-20T04:12:37;96157.84;;;13.01;100.00
11198;BME280;5655;48.744;9.162;2023-05-20T04:15:03;96156.34;;;13.22;100.00
11198;BME280;5655;48.744;9.162;2023-05-20T04:17:29;96163.25;;;13.40;100.00
11198;BME280;5655;48.744;9.162;2023-05-20T04:19:55;96161.69;;;13.57;100.00
11198;BME280;5655;48.744;9.162;2023-05-20T04:22:21;96166.31;;;13.42;100.00
11198;BME280;5655;48.744;9.162;2023-05-20T04:24:47;96164.03;;;13.48;100.00
11198;BME280;5655;48.744;9.162;2023-05-20T04:27:12;96155.19;;;13.33;100.00
11198;BME280;5655;48.744;9.162;2023-05-20T04:29:38;96154.81;;;13.45;100.00
11198;BME280;5655;48.744;9.162;2023-05-20T04:32:06;96156.34;;;13.53;100.00
11198;BME280;5655;48.744;9.162;2023-05-20T04:34:31;96148.66;;;13.45;100.00
11198;BME280;5655;48.744;9.162;2023-05-20T04:36:59;96148.28;;;13.32;100.00
11198;BME280;5655;48.744;9.162;2023-05-20T04:39:25;96132.91;;;13.26;100.00
11198;BME280;5655;48.744;9.162;2023-05-20T04:41:51;96154.00;;;13.55;100.00
11198;BME280;5655;48.744;9.162;2023-05-20T04:44:18;96135.97;;;13.42;100.00
11198;BME280;5655;48.744;9.162;2023-05-20T04:46:44;96147.09;;;13.51;100.00
11198;BME280;5655;48.744;9.162;2023-05-20T04:49:10;96143.28;;;13.45;100.00
11198;BME280;5655;48.744;9.162;2023-05-20T04:51:35;96148.28;;;13.43;100.00
11198;BME280;5655;48.744;9.162;2023-05-20T04:54:00;96138.31;;;13.33;100.00
11198;BME280;5655;48.744;9.162;2023-05-20T04:56:26;96140.59;;;13.41;100.00
11198;BME280;5655;48.744;9.162;2023-05-20T04:58:51;96140.19;;;13.43;100.00
11198;BME280;5655;48.744;9.162;2023-05-20T05:01:17;96147.53;;;13.46;100.00
11198;BME280;5655;48.744;9.162;2023-05-20T05:03:42;96143.28;;;13.52;100.00
11198;BME280;5655;48.744;9.162;2023-05-20T05:06:07;96151.34;;;13.59;100.00
11198;BME280;5655;48.744;9.162;2023-05-20T05:08:33;96148.25;;;13.60;100.00
11198;BME280;5655;48.744;9.162;2023-05-20T05:10:58;96140.97;;;13.47;100.00
11198;BME280;5655;48.744;9.162;2023-05-20T05:13:23;96142.50;;;13.62;100.00
11198;BME280;5655;48.744;9.162;2023-05-20T05:15:57;96142.44;;;13.83;100.00
11198;BME280;5655;48.744;9.162;2023-05-20T05:18:23;96140.94;;;13.68;100.00
11198;BME280;5655;48.744;9.162;2023-05-20T05:20:48;96143.16;;;13.94;100.00
11198;BME280;5655;48.744;9.162;2023-05-20T05:23:13;96148.53;;;14.01;100.00
11198;BME280;5655;48.744;9.162;2023-05-20T05:25:38;96145.84;;;13.94;100.00
11198;BME280;5655;48.744;9.162;2023-05-20T05:28:04;96126.34;;;13.76;100.00
11198;BME280;5655;48.744;9.162;2023-05-20T05:30:29;96118.59;;;13.92;100.00
11198;BME280;5655;48.744;9.162;2023-05-20T05:32:54;96130.53;;;13.77;100.00
11198;BME280;5655;48.744;9.162;2023-05-20T05:35:20;96130.91;;;13.93;100.00
11198;BME280;5655;48.744;9.162;2023-05-20T05:37:45;96130.91;;;13.86;100.00
11198;BME280;5655;48.744;9.162;2023-05-20T05:40:11;96122.47;;;13.84;100.00
11198;BME280;5655;48.744;9.162;2023-05-20T05:42:36;96116.25;;;13.94;100.00
11198;BME280;5655;48.744;9.162;2023-05-20T05:45:02;96126.97;;;14.12;100.00
11198;BME280;5655;48.744;9.162;2023-05-20T05:47:27;96127.75;;;14.09;100.00
11198;BME280;5655;48.744;9.162;2023-05-20T05:49:56;96127.34;;;14.14;100.00
11198;BME280;5655;48.744;9.162;2023-05-20T05:52:21;96131.84;;;14.42;100.00
11198;BME280;5655;48.744;9.162;2023-05-20T05:54:47;96129.84;;;14.57;100.00
11198;BME280;5655;48.744;9.162;2023-05-20T05:57:12;96123.00;;;14.45;100.00
11198;BME280;5655;48.744;9.162;2023-05-20T05:59:37;96126.47;;;14.42;100.00
11198;BME280;5655;48.744;9.162;2023-05-20T06:02:03;96132.19;;;14.51;100.00
11198;BME280;5655;48.744;9.162;2023-05-20T06:04:28;96143.88;;;14.89;100.00
11198;BME280;5655;48.744;9.162;2023-05-20T06:06:54;96136.72;;;14.68;100.00
11198;BME280;5655;48.744;9.162;2023-05-20T06:09:19;96132.78;;;14.83;100.00
11198;BME280;5655;48.744;9.162;2023-05-20T06:11:44;96126.66;;;14.79;100.00
11198;BME280;5655;48.744;9.162;2023-05-20T06:14:10;96144.44;;;15.21;100.00
11198;BME280;5655;48.744;9.162;2023-05-20T06:16:35;96143.28;;;15.19;100.00
11198;BME280;5655;48.744;9.162;2023-05-20T06:19:00;96132.56;;;15.12;100.00
11198;BME280;5655;48.744;9.162;2023-05-20T06:21:26;96135.19;;;15.19;100.00
11198;BME280;5655;48.744;9.162;2023-05-20T06:23:51;96130.84;;;15.32;100.00
11198;BME280;5655;48.744;9.162;2023-05-20T06:26:16;96140.84;;;15.35;100.00
11198;BME280;5655;48.744;9.162;2023-05-20T06:28:42;96142.72;;;15.41;100.00
11198;BME280;5655;48.744;9.162;2023-05-20T06:31:07;96145.09;;;15.77;100.00
11198;BME280;5655;48.744;9.162;2023-05-20T06:33:33;96142.63;;;15.56;100.00
11198;BME280;5655;48.744;9.162;2023-05-20T06:35:58;96136.09;;;15.50;100.00
11198;BME280;5655;48.744;9.162;2023-05-20T06:38:25;96122.31;;;15.37;100.00
11198;BME280;5655;48.744;9.162;2023-05-20T06:40:51;96131.22;;;15.78;100.00
11198;BME280;5655;48.744;9.162;2023-05-20T06:43:16;96135.63;;;15.99;100.00
11198;BME280;5655;48.744;9.162;2023-05-20T06:45:42;96142.50;;;16.04;100.00
11198;BME280;5655;48.744;9.162;2023-05-20T06:48:08;96135.47;;;16.10;100.00
11198;BME280;5655;48.744;9.162;2023-05-20T06:50:33;96130.31;;;15.88;100.00
11198;BME280;5655;48.744;9.162;2023-05-20T06:52:59;96125.34;;;15.83;100.00
11198;BME280;5655;48.744;9.162;2023-05-20T06:55:25;96133.94;;;16.12;100.00
11198;BME280;5655;48.744;9.162;2023-05-20T06:57:50;96136.84;;;16.25;100.00
11198;BME280;5655;48.744;9.162;2023-05-20T07:00:15;96131.34;;;16.32;100.00
11198;BME280;5655;48.744;9.162;2023-05-20T07:02:41;96132.91;;;16.33;100.00
11198;BME280;5655;48.744;9.162;2023-05-20T07:05:07;96129.75;;;16.38;100.00
11198;BME280;5655;48.744;9.162;2023-05-20T07:07:33;96129.75;;;16.68;100.00
11198;BME280;5655;48.744;9.162;2023-05-20T07:09:58;96127.88;;;16.35;100.00
11198;BME280;5655;48.744;9.162;2023-05-20T07:12:24;96118.22;;;16.34;100.00
11198;BME280;5655;48.744;9.162;2023-05-20T07:14:50;96124.69;;;16.70;100.00
11198;BME280;5655;48.744;9.162;2023-05-20T07:17:15;96114.41;;;16.89;100.00
11198;BME280;5655;48.744;9.162;2023-05-20T07:19:41;96115.94;;;16.90;100.00
11198;BME280;5655;48.744;9.162;2023-05-20T07:22:06;96114.72;;;17.17;100.00
11198;BME280;5655;48.744;9.162;2023-05-20T07:24:31;96113.38;;;17.29;100.00
11198;BME280;5655;48.744;9.162;2023-05-20T07:26:57;96112.19;;;17.30;100.00
11198;BME280;5655;48.744;9.162;2023-05-20T07:29:22;96113.22;;;17.13;100.00
11198;BME280;5655;48.744;9.162;2023-05-20T07:31:47;96109.88;;;16.82;100.00
11198;BME280;5655;48.744;9.162;2023-05-20T07:34:12;96112.06;;;16.91;100.00
11198;BME280;5655;48.744;9.162;2023-05-20T07:36:38;96111.34;;;16.87;100.00
11198;BME280;5655;48.744;9.162;2023-05-20T07:39:03;96116.47;;;17.28;100.00
11198;BME280;5655;48.744;9.162;2023-05-20T07:41:29;96114.34;;;17.39;100.00
11198;BME280;5655;48.744;9.162;2023-05-20T07:43:54;96111.47;;;17.49;100.00
11198;BME280;5655;48.744;9.162;2023-05-20T07:46:19;96108.19;;;17.61;100.00
11198;BME280;5655;48.744;9.162;2023-05-20T07:48:45;96103.91;;;17.64;100.00
11198;BME280;5655;48.744;9.162;2023-05-20T07:51:10;96108.53;;;17.40;100.00
11198;BME280;5655;48.744;9.162;2023-05-20T07:53:36;96100.41;;;17.40;100.00
11198;BME280;5655;48.744;9.162;2023-05-20T07:56:01;96105.00;;;17.86;100.00
11198;BME280;5655;48.744;9.162;2023-05-20T07:58:27;96105.94;;;17.80;100.00
11198;BME280;5655;48.744;9.162;2023-05-20T08:00:53;96097.31;;;17.85;100.00
11198;BME280;5655;48.744;9.162;2023-05-20T08:03:18;96096.75;;;18.13;100.00
11198;BME280;5655;48.744;9.162;2023-05-20T08:05:43;96096.47;;;18.27;100.00
11198;BME280;5655;48.744;9.162;2023-05-20T08:08:09;96101.97;;;18.24;100.00
11198;BME280;5655;48.744;9.162;2023-05-20T08:10:35;96111.56;;;18.28;100.00
11198;BME280;5655;48.744;9.162;2023-05-20T08:13:00;96106.22;;;18.05;100.00
11198;BME280;5655;48.744;9.162;2023-05-20T08:15:26;96100.28;;;18.30;100.00
11198;BME280;5655;48.744;9.162;2023-05-20T08:17:51;96106.09;;;18.12;100.00
11198;BME280;5655;48.744;9.162;2023-05-20T08:20:16;96113.56;;;17.85;100.00
11198;BME280;5655;48.744;9.162;2023-05-20T08:22:42;96113.19;;;17.63;100.00
11198;BME280;5655;48.744;9.162;2023-05-20T08:25:08;96122.38;;;18.08;100.00
11198;BME280;5655;48.744;9.162;2023-05-20T08:27:35;96123.78;;;18.17;100.00
11198;BME280;5655;48.744;9.162;2023-05-20T08:30:01;96120.81;;;18.11;100.00
11198;BME280;5655;48.744;9.162;2023-05-20T08:32:26;96120.53;;;18.05;100.00
11198;BME280;5655;48.744;9.162;2023-05-20T08:34:51;96120.84;;;18.27;100.00
11198;BME280;5655;48.744;9.162;2023-05-20T08:37:17;96122.88;;;18.23;100.00
11198;BME280;5655;48.744;9.162;2023-05-20T08:39:42;96122.78;;;18.46;100.00
11198;BME280;5655;48.744;9.162;2023-05-20T08:42:10;96109.38;;;18.39;100.00
11198;BME280;5655;48.744;9.162;2023-05-20T08:44:37;96120.91;;;18.43;100.00
11198;BME280;5655;48.744;9.162;2023-05-20T08:47:03;96116.63;;;18.26;100.00
11198;BME280;5655;48.744;9.162;2023-05-20T08:49:30;96122.25;;;18.35;100.00
11198;BME280;5655;48.744;9.162;2023-05-20T08:51:57;96122.00;;;18.66;100.00
11198;BME280;5655;48.744;9.162;2023-05-20T08:54:24;96120.69;;;18.90;100.00
11198;BME280;5655;48.744;9.162;2023-05-20T08:56:50;96104.22;;;18.65;100.00
11198;BME280;5655;48.744;9.162;2023-05-20T08:59:18;96106.09;;;18.12;100.00
11198;BME280;5655;48.744;9.162;2023-05-20T09:01:44;96114.25;;;18.28;100.00
11198;BME280;5655;48.744;9.162;2023-05-20T09:04:09;96096.72;;;18.52;100.00
11198;BME280;5655;48.744;9.162;2023-05-20T09:06:44;96098.03;;;19.29;100.00
11198;BME280;5655;48.744;9.162;2023-05-20T09:09:11;96097.03;;;18.90;100.00
11198;BME280;5655;48.744;9.162;2023-05-20T09:11:38;96084.91;;;19.27;100.00
11198;BME280;5655;48.744;9.162;2023-05-20T09:14:04;96101.84;;;19.64;100.00
11198;BME280;5655;48.744;9.162;2023-05-20T09:16:30;96099.47;;;19.66;100.00
11198;BME280;5655;48.744;9.162;2023-05-20T09:18:55;96093.47;;;19.58;100.00
11198;BME280;5655;48.744;9.162;2023-05-20T09:21:28;96103.25;;;20.26;100.00
11198;BME280;5655;48.744;9.162;2023-05-20T09:23:54;96095.16;;;20.38;100.00
11198;BME280;5655;48.744;9.162;2023-05-20T09:26:25;96099.81;;;20.38;100.00
11198;BME280;5655;48.744;9.162;2023-05-20T09:28:50;96103.97;;;20.68;100.00
11198;BME280;5655;48.744;9.162;2023-05-20T09:31:16;96106.53;;;19.92;100.00
11198;BME280;5655;48.744;9.162;2023-05-20T09:33:41;96096.16;;;20.70;100.00
11198;BME280;5655;48.744;9.162;2023-05-20T09:36:07;96098.31;;;20.08;100.00
11198;BME280;5655;48.744;9.162;2023-05-20T09:38:36;96100.06;;;20.44;100.00
11198;BME280;5655;48.744;9.162;2023-05-20T09:41:05;96095.41;;;20.28;100.00
11198;BME280;5655;48.744;9.162;2023-05-20T09:43:32;96090.41;;;19.85;100.00
11198;BME280;5655;48.744;9.162;2023-05-20T09:45:58;96102.13;;;19.82;100.00
11198;BME280;5655;48.744;9.162;2023-05-20T09:48:25;96095.28;;;20.60;100.00
11198;BME280;5655;48.744;9.162;2023-05-20T09:50:50;96092.25;;;20.71;100.00
11198;BME280;5655;48.744;9.162;2023-05-20T09:53:16;96094.22;;;20.83;100.00
11198;BME280;5655;48.744;9.162;2023-05-20T09:55:42;96101.69;;;20.54;100.00
11198;BME280;5655;48.744;9.162;2023-05-20T09:58:08;96091.63;;;20.25;100.00
11198;BME280;5655;48.744;9.162;2023-05-20T10:00:34;96090.63;;;20.19;100.00
11198;BME280;5655;48.744;9.162;2023-05-20T10:03:00;96081.25;;;20.87;100.00
11198;BME280;5655;48.744;9.162;2023-05-20T10:05:34;96067.31;;;20.85;100.00
11198;BME280;5655;48.744;9.162;2023-05-20T10:10:37;96075.81;;;20.62;100.00
11198;BME280;5655;48.744;9.162;2023-05-20T10:22:05;96054.25;;;20.80;100.00
11198;BME280;5655;48.744;9.162;2023-05-20T10:24:37;96055.47;;;20.92;100.00
11198;BME280;5655;48.744;9.162;2023-05-20T10:27:04;96060.75;;;21.20;100.00
11198;BME280;5655;48.744;9.162;2023-05-20T10:30:00;96063.59;;;21.86;100.00
11198;BME280;5655;48.744;9.162;2023-05-20T10:32:27;96070.63;;;21.74;100.00
11198;BME280;5655;48.744;9.162;2023-05-20T10:35:01;96070.16;;;21.76;100.00
11198;BME280;5655;48.744;9.162;2023-05-20T10:37:31;96052.50;;;22.24;100.00
11198;BME280;5655;48.744;9.162;2023-05-20T10:40:11;96058.63;;;22.68;100.00
11198;BME280;5655;48.744;9.162;2023-05-20T10:42:38;96051.28;;;22.25;100.00
11198;BME280;5655;48.744;9.162;2023-05-20T10:45:04;96055.00;;;22.40;100.00
11198;BME280;5655;48.744;9.162;2023-05-20T10:47:30;96050.78;;;22.48;100.00
11198;BME280;5655;48.744;9.162;2023-05-20T10:49:56;96049.19;;;22.29;100.00
11198;BME280;5655;48.744;9.162;2023-05-20T10:52:23;96048.47;;;22.68;100.00
11198;BME280;5655;48.744;9.162;2023-05-20T10:54:55;96041.44;;;22.98;100.00
11198;BME280;5655;48.744;9.162;2023-05-20T10:57:22;96037.19;;;22.97;100.00
11198;BME280;5655;48.744;9.162;2023-05-20T10:59:48;96028.84;;;22.91;100.00
11198;BME280;5655;48.744;9.162;2023-05-20T11:02:17;96028.88;;;23.10;100.00
11198;BME280;5655;48.744;9.162;2023-05-20T11:04:43;96023.38;;;22.91;100.00
11198;BME280;5655;48.744;9.162;2023-05-20T11:07:08;96028.91;;;23.28;100.00
11198;BME280;5655;48.744;9.162;2023-05-20T11:09:34;96020.78;;;23.55;100.00
11198;BME280;5655;48.744;9.162;2023-05-20T11:12:00;96026.50;;;23.75;100.00
11198;BME280;5655;48.744;9.162;2023-05-20T11:14:27;96021.44;;;24.10;100.00
11198;BME280;5655;48.744;9.162;2023-05-20T11:16:58;96006.63;;;23.75;100.00
11198;BME280;5655;48.744;9.162;2023-05-20T11:19:26;96003.72;;;23.87;100.00
11198;BME280;5655;48.744;9.162;2023-05-20T11:21:52;95999.50;;;23.59;100.00
11198;BME280;5655;48.744;9.162;2023-05-20T11:24:25;96003.13;;;23.20;100.00
11198;BME280;5655;48.744;9.162;2023-05-20T11:26:51;96003.56;;;23.18;100.00
11198;BME280;5655;48.744;9.162;2023-05-20T11:29:18;96004.66;;;23.48;100.00
11198;BME280;5655;48.744;9.162;2023-05-20T11:31:44;96007.41;;;23.57;100.00
11198;BME280;5655;48.744;9.162;2023-05-20T11:34:09;95999.19;;;23.48;100.00
11198;BME280;5655;48.744;9.162;2023-05-20T11:36:42;96006.03;;;23.62;100.00
11198;BME280;5655;48.744;9.162;2023-05-20T11:39:11;96008.56;;;23.92;100.00
11198;BME280;5655;48.744;9.162;2023-05-20T11:41:40;96000.84;;;23.82;100.00
11198;BME280;5655;48.744;9.162;2023-05-20T11:44:09;95992.19;;;23.65;100.00
11198;BME280;5655;48.744;9.162;2023-05-20T11:46:42;95999.47;;;24.47;100.00
11198;BME280;5655;48.744;9.162;2023-05-20T11:49:08;95992.81;;;23.69;100.00
11198;BME280;5655;48.744;9.162;2023-05-20T11:51:34;95992.53;;;23.58;100.00
11198;BME280;5655;48.744;9.162;2023-05-20T11:54:02;95997.81;;;23.89;100.00
11198;BME280;5655;48.744;9.162;2023-05-20T11:56:29;95991.25;;;23.86;100.00
11198;BME280;5655;48.744;9.162;2023-05-20T11:58:56;95995.47;;;24.15;100.00
11198;BME280;5655;48.744;9.162;2023-05-20T12:01:23;95992.19;;;23.83;100.00
11198;BME280;5655;48.744;9.162;2023-05-20T12:03:48;95983.56;;;23.58;100.00
11198;BME280;5655;48.744;9.162;2023-05-20T12:06:13;95987.28;;;24.06;100.00
11198;BME280;5655;48.744;9.162;2023-05-20T12:08:38;95989.91;;;23.82;100.00
11198;BME280;5655;48.744;9.162;2023-05-20T12:11:04;95988.63;;;24.10;100.00
11198;BME280;5655;48.744;9.162;2023-05-20T12:13:30;95988.16;;;24.21;100.00
11198;BME280;5655;48.744;9.162;2023-05-20T12:15:55;95978.06;;;25.02;100.00
11198;BME280;5655;48.744;9.162;2023-05-20T12:18:21;95977.13;;;25.82;100.00
11198;BME280;5655;48.744;9.162;2023-05-20T12:20:46;95956.03;;;26.02;100.00
11198;BME280;5655;48.744;9.162;2023-05-20T12:23:12;95955.72;;;26.15;100.00
11198;BME280;5655;48.744;9.162;2023-05-20T12:25:37;95954.16;;;25.94;100.00
11198;BME280;5655;48.744;9.162;2023-05-20T12:28:02;95954.94;;;25.41;100.00
11198;BME280;5655;48.744;9.162;2023-05-20T12:30:28;95960.00;;;25.19;100.00
11198;BME280;5655;48.744;9.162;2023-05-20T12:32:53;95964.63;;;24.56;100.00
11198;BME280;5655;48.744;9.162;2023-05-20T12:35:35;95955.03;;;25.32;100.00
11198;BME280;5655;48.744;9.162;2023-05-20T12:38:08;95957.13;;;25.52;100.00
11198;BME280;5655;48.744;9.162;2023-05-20T12:40:34;95953.88;;;25.77;100.00
11198;BME280;5655;48.744;9.162;2023-05-20T12:43:01;95959.00;;;25.46;100.00
11198;BME280;5655;48.744;9.162;2023-05-20T12:45:26;95947.72;;;25.67;100.00
11198;BME280;5655;48.744;9.162;2023-05-20T12:47:55;95957.84;;;25.61;100.00
11198;BME280;5655;48.744;9.162;2023-05-20T12:50:32;95971.97;;;25.45;100.00
11198;BME280;5655;48.744;9.162;2023-05-20T12:52:57;95963.06;;;25.50;100.00
11198;BME280;5655;48.744;9.162;2023-05-20T12:55:23;95955.09;;;25.23;100.00
11198;BME280;5655;48.744;9.162;2023-05-20T12:57:48;95945.59;;;25.48;100.00
11198;BME280;5655;48.744;9.162;2023-05-20T13:00:14;95941.00;;;26.27;96.03
11198;BME280;5655;48.744;9.162;2023-05-20T13:02:41;95934.69;;;25.92;100.00
11198;BME280;5655;48.744;9.162;2023-05-20T13:05:08;95944.66;;;26.39;100.00
11198;BME280;5655;48.744;9.162;2023-05-20T13:07:33;95941.03;;;25.30;100.00